Time;durP1;ratioP1;P1;durP2;ratioP2;P2;SDS_P1;SDS_P2;PMS_P1;PMS_P2;Temp;Humidity;BMP_temperature;BMP_pressure;BME280_temperature;BME280_humidity;BME280_pressure;Samples;Min_cycle;Max_cycle;Signal;HPM_P1;HPM_P2
2022/11/27 00:02:04;;;;;;;22.45;8.25;;;7.60;99.90;;;;;;5059280;28;20075;-68
2022/11/27 00:04:29;;;;;;;20.90;7.10;;;7.60;99.90;;;;;;5059044;28;20028;-69
2022/11/27 00:06:55;;;;;;;16.52;6.57;;;7.70;99.90;;;;;;5071316;28;20055;-69
2022/11/27 00:09:20;;;;;;;17.58;5.47;;;7.60;99.90;;;;;;5070089;28;20044;-72
2022/11/27 00:11:46;;;;;;;18.63;6.35;;;7.70;99.90;;;;;;5059341;28;20032;-71
2022/11/27 00:14:14;;;;;;;18.52;6.75;;;7.60;99.90;;;;;;5059447;28;20023;-68
2022/11/27 00:16:40;;;;;;;24.05;6.22;;;7.60;99.90;;;;;;5069033;28;20028;-70
2022/11/27 00:19:06;;;;;;;17.63;5.43;;;7.60;99.90;;;;;;5066086;28;20024;-70
2022/11/27 00:21:33;;;;;;;19.73;6.78;;;7.60;99.90;;;;;;5066434;28;20021;-70
2022/11/27 00:24:00;;;;;;;22.27;6.18;;;7.60;99.90;;;;;;5069598;28;20025;-70
2022/11/27 00:26:28;;;;;;;14.38;4.75;;;7.60;99.90;;;;;;5069100;28;20070;-71
2022/11/27 00:28:53;;;;;;;16.75;5.95;;;7.50;99.90;;;;;;5066310;28;20025;-69
2022/11/27 00:31:27;;;;;;;20.45;6.90;;;7.60;99.90;;;;;;5067757;28;20023;-70
2022/11/27 00:33:57;;;;;;;20.52;6.68;;;7.50;99.90;;;;;;5066575;28;20345;-69
2022/11/27 00:36:24;;;;;;;15.52;5.10;;;7.50;99.90;;;;;;5075727;28;20390;-70
2022/11/27 00:38:50;;;;;;;18.35;5.45;;;7.50;99.90;;;;;;5065347;28;20079;-69
2022/11/27 00:41:18;;;;;;;17.20;5.80;;;7.60;99.90;;;;;;5065808;28;20024;-69
2022/11/27 00:43:44;;;;;;;20.70;5.43;;;7.60;99.90;;;;;;5063086;28;20816;-69
2022/11/27 00:46:11;;;;;;;16.92;4.80;;;7.60;99.90;;;;;;5062411;28;20096;-69
2022/11/27 00:48:37;;;;;;;19.20;6.50;;;7.60;99.90;;;;;;5063211;28;20100;-70
2022/11/27 00:51:06;;;;;;;19.52;4.90;;;7.60;99.90;;;;;;5071580;28;20155;-69
2022/11/27 00:53:32;;;;;;;13.40;4.40;;;7.70;99.90;;;;;;5065935;28;20097;-69
2022/11/27 00:55:58;;;;;;;15.50;5.95;;;7.70;99.90;;;;;;5068522;28;20017;-69
2022/11/27 00:58:25;;;;;;;17.48;6.72;;;7.70;99.90;;;;;;5068842;28;20044;-72
2022/11/27 01:00:55;;;;;;;20.33;4.53;;;7.70;99.90;;;;;;5066064;28;20021;-71
2022/11/27 01:03:20;;;;;;;19.75;6.32;;;7.70;99.90;;;;;;5064839;28;20442;-71
2022/11/27 01:05:46;;;;;;;16.35;5.28;;;7.80;99.90;;;;;;5067086;28;20027;-73
2022/11/27 01:08:11;;;;;;;15.20;4.95;;;7.80;99.90;;;;;;5072113;28;20071;-72
2022/11/27 01:10:37;;;;;;;16.88;5.07;;;7.80;99.90;;;;;;5067772;28;20035;-71
2022/11/27 01:13:02;;;;;;;14.15;3.90;;;7.80;99.90;;;;;;5074896;28;20016;-71
2022/11/27 01:15:28;;;;;;;16.60;4.70;;;7.80;99.90;;;;;;5066679;28;20353;-70
2022/11/27 01:17:53;;;;;;;14.55;4.95;;;7.80;99.90;;;;;;5075325;28;20364;-70
2022/11/27 01:20:19;;;;;;;18.73;5.50;;;7.80;99.90;;;;;;5065057;28;21709;-70
2022/11/27 01:22:44;;;;;;;14.48;4.32;;;7.80;99.90;;;;;;5070932;28;20024;-69
2022/11/27 01:25:10;;;;;;;18.58;5.57;;;7.80;99.90;;;;;;5072164;28;20024;-69
2022/11/27 01:27:36;;;;;;;9.18;3.47;;;7.80;99.90;;;;;;5074480;28;20467;-69
2022/11/27 01:30:01;;;;;;;12.02;3.83;;;7.80;99.90;;;;;;5071482;28;20032;-69
2022/11/27 01:32:27;;;;;;;13.75;3.60;;;7.80;99.90;;;;;;5070603;28;20085;-69
2022/11/27 01:34:53;;;;;;;15.48;4.38;;;7.80;99.90;;;;;;5070755;28;20078;-71
2022/11/27 01:37:18;;;;;;;16.42;4.25;;;7.80;99.90;;;;;;5072019;28;20541;-68
2022/11/27 01:39:44;;;;;;;18.52;4.88;;;7.80;99.90;;;;;;5082205;28;20032;-71
2022/11/27 01:42:12;;;;;;;7.47;3.17;;;7.70;99.90;;;;;;5069799;28;20017;-71
2022/11/27 01:44:50;;;;;;;13.27;3.25;;;7.70;99.90;;;;;;5069368;28;20036;-70
2022/11/27 01:47:28;;;;;;;18.20;4.18;;;7.70;99.90;;;;;;5070391;28;20032;-71
2022/11/27 01:49:59;;;;;;;8.95;3.60;;;7.60;99.90;;;;;;5071670;28;20028;-69
2022/11/27 01:52:32;;;;;;;9.55;3.88;;;7.70;99.90;;;;;;5070851;28;20036;-70
2022/11/27 01:55:17;;;;;;;12.32;3.63;;;7.70;99.90;;;;;;5071224;28;20031;-71
2022/11/27 01:57:47;;;;;;;20.85;4.30;;;7.60;99.90;;;;;;5070312;28;20024;-71
2022/11/27 02:00:14;;;;;;;13.48;3.53;;;7.60;99.90;;;;;;5071935;28;20020;-70
2022/11/27 02:02:42;;;;;;;20.00;4.43;;;7.60;99.90;;;;;;5069006;28;20025;-70
2022/11/27 02:05:08;;;;;;;12.77;3.58;;;7.60;99.90;;;;;;5071425;28;20086;-71
2022/11/27 02:07:34;;;;;;;10.25;2.92;;;7.60;99.90;;;;;;5071302;28;20117;-71
2022/11/27 02:09:59;;;;;;;14.45;3.83;;;7.60;99.90;;;;;;5071111;28;20422;-72
2022/11/27 02:12:44;;;;;;;17.45;5.00;;;7.60;99.90;;;;;;5070276;28;20024;-70
2022/11/27 02:15:12;;;;;;;14.88;3.63;;;7.60;99.90;;;;;;5066220;28;20021;-69
2022/11/27 02:18:03;;;;;;;12.65;3.22;;;7.60;99.90;;;;;;5071315;28;20074;-70
2022/11/27 02:20:52;;;;;;;10.13;3.95;;;7.60;99.90;;;;;;5070482;28;20048;-72
2022/11/27 02:23:45;;;;;;;17.17;4.22;;;7.60;99.90;;;;;;5067199;28;20020;-68
2022/11/27 02:26:36;;;;;;;11.57;3.95;;;7.70;99.90;;;;;;5056176;28;20457;-68
2022/11/27 02:29:05;;;;;;;12.88;3.70;;;7.70;99.90;;;;;;5059784;28;20070;-69
2022/11/27 02:32:09;;;;;;;14.95;4.13;;;7.70;99.90;;;;;;5067215;28;20406;-69
2022/11/27 02:34:46;;;;;;;14.88;3.75;;;7.70;99.90;;;;;;5059211;28;20029;-69
2022/11/27 02:37:12;;;;;;;13.75;3.10;;;7.80;99.90;;;;;;5060732;28;20502;-69
2022/11/27 02:39:50;;;;;;;17.15;4.43;;;7.70;99.90;;;;;;5070543;28;20013;-69
2022/11/27 02:42:19;;;;;;;17.35;4.38;;;7.80;99.90;;;;;;5070639;28;20078;-69
2022/11/27 02:44:54;;;;;;;11.75;3.78;;;7.80;99.90;;;;;;5069348;28;20035;-71
2022/11/27 02:47:20;;;;;;;11.65;3.35;;;7.90;99.90;;;;;;5055943;28;20111;-71
2022/11/27 02:49:48;;;;;;;21.80;4.22;;;7.90;99.90;;;;;;5065118;28;20077;-69
2022/11/27 02:52:16;;;;;;;12.52;3.25;;;7.90;99.90;;;;;;5070391;28;20379;-71
2022/11/27 02:54:44;;;;;;;12.88;4.00;;;7.90;99.90;;;;;;5068148;28;20032;-67
2022/11/27 02:57:11;;;;;;;13.23;4.10;;;7.90;99.90;;;;;;5072121;28;20036;-70
2022/11/27 02:59:40;;;;;;;13.63;3.97;;;7.90;99.90;;;;;;5072934;28;20342;-72
2022/11/27 03:02:10;;;;;;;13.73;3.92;;;7.90;99.90;;;;;;5059230;28;20021;-68
2022/11/27 03:04:47;;;;;;;13.80;3.70;;;7.90;99.90;;;;;;5069373;28;20017;-73
2022/11/27 03:07:24;;;;;;;15.15;4.80;;;7.90;99.90;;;;;;5054598;28;20039;-73
2022/11/27 03:09:55;;;;;;;16.42;5.05;;;7.90;99.90;;;;;;5078869;28;20359;-71
2022/11/27 03:12:21;;;;;;;17.10;3.97;;;7.90;99.90;;;;;;5073276;28;20028;-70
2022/11/27 03:14:47;;;;;;;10.48;3.30;;;7.90;99.90;;;;;;5070722;28;20020;-72
2022/11/27 03:17:33;;;;;;;15.43;3.92;;;7.90;99.90;;;;;;5067710;28;20017;-70
2022/11/27 03:20:19;;;;;;;9.90;3.08;;;7.90;99.90;;;;;;5063337;28;20031;-71
2022/11/27 03:22:45;;;;;;;12.07;4.10;;;7.90;99.90;;;;;;5056560;28;20442;-71
2022/11/27 03:25:11;;;;;;;12.50;3.45;;;7.90;99.90;;;;;;5068442;28;20026;-73
2022/11/27 03:28:01;;;;;;;13.55;3.88;;;7.80;99.90;;;;;;5072860;28;20020;-73
2022/11/27 03:30:27;;;;;;;14.32;4.88;;;7.90;99.90;;;;;;5057181;28;20371;-71
2022/11/27 03:32:53;;;;;;;9.23;2.95;;;7.90;99.90;;;;;;5069077;28;20119;-72
2022/11/27 03:35:22;;;;;;;12.27;3.35;;;7.90;99.90;;;;;;5059070;28;20101;-70
2022/11/27 03:37:48;;;;;;;13.95;4.15;;;7.90;99.90;;;;;;5072120;28;20448;-71
2022/11/27 03:40:15;;;;;;;13.63;3.45;;;7.90;99.90;;;;;;5073091;28;20034;-72
2022/11/27 03:42:43;;;;;;;10.45;3.20;;;7.90;99.90;;;;;;5056301;28;21147;-72
2022/11/27 03:45:27;;;;;;;12.35;3.40;;;8.00;99.90;;;;;;5072971;28;20055;-71
2022/11/27 03:48:00;;;;;;;7.47;2.55;;;7.90;99.90;;;;;;5062226;28;20051;-71
2022/11/27 03:50:53;;;;;;;11.93;4.07;;;7.90;99.90;;;;;;5067026;28;20357;-69
2022/11/27 03:53:43;;;;;;;17.50;5.05;;;7.80;99.90;;;;;;5064492;28;20016;-72
2022/11/27 03:56:30;;;;;;;14.32;4.20;;;7.80;99.90;;;;;;5077023;28;20051;-72
2022/11/27 03:59:22;;;;;;;12.35;4.57;;;7.80;99.90;;;;;;5060159;28;20488;-69
2022/11/27 04:01:48;;;;;;;10.07;4.07;;;7.90;99.90;;;;;;5066664;28;20032;-70
2022/11/27 04:04:14;;;;;;;14.93;5.05;;;7.90;99.90;;;;;;5070221;28;20021;-69
2022/11/27 04:06:40;;;;;;;38.30;6.20;;;7.90;99.90;;;;;;5060034;28;20469;-69
2022/11/27 04:09:05;;;;;;;13.27;4.63;;;7.90;99.90;;;;;;5071153;28;20111;-72
2022/11/27 04:11:31;;;;;;;17.95;5.05;;;7.90;99.90;;;;;;5074705;28;20093;-71
2022/11/27 04:13:57;;;;;;;18.73;5.72;;;7.90;99.90;;;;;;5076344;28;20017;-69
2022/11/27 04:16:22;;;;;;;11.48;3.72;;;7.90;99.90;;;;;;5061781;28;20445;-70
2022/11/27 04:18:48;;;;;;;12.20;4.05;;;7.90;99.90;;;;;;5072659;28;20025;-72
2022/11/27 04:21:15;;;;;;;18.55;4.55;;;7.90;99.90;;;;;;5071214;28;20457;-72
2022/11/27 04:23:41;;;;;;;11.52;3.97;;;7.90;99.90;;;;;;5067377;28;20356;-72
2022/11/27 04:26:07;;;;;;;11.40;3.75;;;7.90;99.90;;;;;;5068866;28;20437;-69
2022/11/27 04:28:32;;;;;;;15.15;5.50;;;7.90;99.90;;;;;;5076073;28;20036;-71
2022/11/27 04:30:58;;;;;;;13.02;4.93;;;7.90;99.90;;;;;;5072780;28;20017;-71
2022/11/27 04:33:24;;;;;;;12.13;4.55;;;7.90;99.90;;;;;;5062614;28;20506;-72
2022/11/27 04:35:50;;;;;;;12.60;3.92;;;7.90;99.90;;;;;;5065927;28;20025;-70
2022/11/27 04:38:16;;;;;;;17.48;4.10;;;8.00;99.90;;;;;;5069517;28;20460;-70
2022/11/27 04:40:42;;;;;;;13.00;4.10;;;7.90;99.90;;;;;;5059005;28;20039;-68
2022/11/27 04:43:07;;;;;;;14.30;4.07;;;7.90;99.90;;;;;;5071406;28;20036;-68
2022/11/27 04:45:33;;;;;;;13.57;3.30;;;7.80;99.90;;;;;;5074265;28;20013;-70
2022/11/27 04:47:59;;;;;;;18.42;4.00;;;7.70;99.90;;;;;;5075536;28;20028;-69
2022/11/27 04:50:24;;;;;;;15.25;3.40;;;7.70;99.90;;;;;;5061013;28;20094;-69
2022/11/27 04:52:50;;;;;;;11.00;3.28;;;7.60;99.90;;;;;;5072023;28;20074;-70
2022/11/27 04:55:15;;;;;;;14.35;3.65;;;7.60;99.90;;;;;;5061114;28;20017;-70
2022/11/27 04:57:41;;;;;;;16.83;3.80;;;7.50;99.90;;;;;;5066297;28;20029;-70
2022/11/27 05:00:07;;;;;;;11.88;3.03;;;7.60;99.90;;;;;;5061594;28;20021;-70
2022/11/27 05:02:33;;;;;;;9.73;3.10;;;7.50;99.90;;;;;;5073346;28;20020;-70
2022/11/27 05:04:59;;;;;;;10.50;3.88;;;7.50;99.90;;;;;;5075735;28;20078;-71
2022/11/27 05:07:24;;;;;;;16.98;4.03;;;7.50;99.90;;;;;;5075459;28;20338;-71
2022/11/27 05:09:50;;;;;;;10.48;2.45;;;7.50;99.90;;;;;;5074734;28;20352;-71
2022/11/27 05:12:16;;;;;;;12.18;3.13;;;7.40;99.90;;;;;;5075583;28;20040;-71
2022/11/27 05:14:41;;;;;;;11.23;3.25;;;7.40;99.90;;;;;;5075682;28;20020;-71
2022/11/27 05:17:08;;;;;;;11.38;3.22;;;7.40;99.90;;;;;;5075437;28;20025;-71
2022/11/27 05:19:34;;;;;;;8.75;3.25;;;7.40;99.90;;;;;;5075248;28;20032;-71
2022/11/27 05:22:00;;;;;;;10.38;3.08;;;7.40;99.90;;;;;;5075586;28;20020;-70
2022/11/27 05:24:27;;;;;;;9.73;2.95;;;7.40;99.90;;;;;;5073910;28;20020;-71
2022/11/27 05:26:53;;;;;;;8.40;2.25;;;7.40;99.90;;;;;;5073599;28;20040;-71
2022/11/27 05:29:20;;;;;;;14.13;3.92;;;7.40;99.90;;;;;;5075159;28;20099;-71
2022/11/27 05:31:45;;;;;;;10.52;2.78;;;7.40;99.90;;;;;;5074889;28;20024;-71
2022/11/27 05:34:11;;;;;;;12.13;3.25;;;7.40;99.90;;;;;;5075418;28;20490;-71
2022/11/27 05:36:37;;;;;;;11.02;3.53;;;7.40;99.90;;;;;;5074835;28;20029;-71
2022/11/27 05:39:05;;;;;;;16.65;4.15;;;7.40;99.90;;;;;;5074904;28;20090;-71
2022/11/27 05:41:30;;;;;;;12.05;3.85;;;7.40;99.90;;;;;;5090306;28;20078;-71
2022/11/27 05:43:56;;;;;;;13.48;3.55;;;7.40;99.90;;;;;;5074729;28;20020;-72
2022/11/27 05:46:22;;;;;;;16.02;3.83;;;7.40;99.90;;;;;;5075179;28;20036;-70
2022/11/27 05:48:48;;;;;;;15.65;3.95;;;7.40;99.90;;;;;;5075074;28;20016;-70
2022/11/27 05:51:15;;;;;;;9.07;3.50;;;7.40;99.90;;;;;;5074673;28;20182;-71
2022/11/27 05:53:41;;;;;;;8.93;3.28;;;7.40;99.90;;;;;;5074487;28;20036;-70
2022/11/27 05:56:12;;;;;;;9.55;2.97;;;7.40;99.90;;;;;;5085237;28;20364;-71
2022/11/27 05:58:39;;;;;;;9.95;3.38;;;7.40;99.90;;;;;;5074411;28;20029;-70
2022/11/27 06:01:06;;;;;;;16.33;3.60;;;7.40;99.90;;;;;;5073822;28;20040;-72
2022/11/27 06:03:31;;;;;;;16.85;4.00;;;7.40;99.90;;;;;;5057907;28;20082;-71
2022/11/27 06:05:57;;;;;;;15.98;3.45;;;7.40;99.90;;;;;;5067921;28;20048;-70
2022/11/27 06:08:23;;;;;;;14.88;3.85;;;7.30;99.90;;;;;;5063783;28;20047;-72
2022/11/27 06:10:49;;;;;;;14.23;4.13;;;7.30;99.90;;;;;;5074168;28;20025;-71
2022/11/27 06:13:15;;;;;;;14.30;3.10;;;7.30;99.90;;;;;;5073357;28;20550;-72
2022/11/27 06:15:42;;;;;;;13.32;3.50;;;7.30;99.90;;;;;;5057978;28;20016;-72
2022/11/27 06:18:10;;;;;;;10.32;3.05;;;7.30;99.90;;;;;;5065844;28;20033;-71
2022/11/27 06:20:36;;;;;;;25.40;4.07;;;7.30;99.90;;;;;;5066001;28;20504;-71
2022/11/27 06:23:02;;;;;;;6.22;2.38;;;7.30;99.90;;;;;;5073392;28;20107;-71
2022/11/27 06:25:27;;;;;;;11.35;3.78;;;7.30;99.90;;;;;;5055858;28;20024;-72
2022/11/27 06:27:53;;;;;;;11.15;3.05;;;7.30;99.90;;;;;;5073869;28;20032;-72
2022/11/27 06:30:19;;;;;;;16.42;4.28;;;7.30;99.90;;;;;;5073921;28;20391;-70
2022/11/27 06:32:44;;;;;;;13.65;3.25;;;7.30;99.90;;;;;;5060650;28;20497;-72
2022/11/27 06:35:10;;;;;;;17.80;3.63;;;7.30;99.90;;;;;;5068695;28;20465;-71
2022/11/27 06:37:35;;;;;;;6.53;2.60;;;7.30;99.90;;;;;;5056842;28;20088;-71
2022/11/27 06:40:03;;;;;;;13.38;3.58;;;7.30;99.90;;;;;;5066382;28;20045;-71
2022/11/27 06:42:29;;;;;;;11.10;3.30;;;7.30;99.90;;;;;;5064298;28;20378;-71
2022/11/27 06:44:55;;;;;;;13.07;4.13;;;7.30;99.90;;;;;;5073965;28;20040;-71
2022/11/27 06:47:21;;;;;;;12.07;3.08;;;7.30;99.90;;;;;;5072039;28;20429;-71
2022/11/27 06:49:46;;;;;;;16.45;3.67;;;7.40;99.90;;;;;;5058925;28;20059;-72
2022/11/27 06:52:12;;;;;;;16.25;4.18;;;7.30;99.90;;;;;;5064866;28;20021;-72
2022/11/27 06:54:37;;;;;;;11.38;4.18;;;7.30;99.90;;;;;;5065400;28;20368;-71
2022/11/27 06:57:03;;;;;;;10.48;3.45;;;7.40;99.90;;;;;;5057567;28;20453;-71
2022/11/27 06:59:29;;;;;;;14.50;4.15;;;7.40;99.90;;;;;;5071171;28;20471;-71
2022/11/27 07:01:54;;;;;;;11.27;3.33;;;7.40;99.90;;;;;;5073189;28;20063;-71
2022/11/27 07:04:20;;;;;;;14.63;4.13;;;7.40;99.90;;;;;;5073094;28;20023;-71
2022/11/27 07:06:45;;;;;;;10.43;3.20;;;7.40;99.90;;;;;;5059598;28;20444;-70
2022/11/27 07:09:11;;;;;;;7.93;1.95;;;7.30;99.90;;;;;;5069714;28;20024;-70
2022/11/27 07:11:37;;;;;;;6.53;2.83;;;7.40;99.90;;;;;;5055439;28;20051;-70
2022/11/27 07:14:04;;;;;;;13.30;3.45;;;7.30;99.90;;;;;;5066047;28;20021;-70
2022/11/27 07:16:32;;;;;;;9.65;2.72;;;7.30;99.90;;;;;;5064051;28;20078;-70
2022/11/27 07:19:00;;;;;;;4.78;1.60;;;7.30;99.90;;;;;;5072037;28;20452;-70
2022/11/27 07:21:26;;;;;;;11.98;2.92;;;7.30;99.90;;;;;;5072833;28;20031;-70
2022/11/27 07:23:52;;;;;;;5.95;2.30;;;7.30;99.90;;;;;;5067457;28;20025;-69
2022/11/27 07:26:20;;;;;;;7.95;2.90;;;7.30;99.90;;;;;;5064832;28;20037;-70
2022/11/27 07:28:46;;;;;;;12.65;3.33;;;7.30;99.90;;;;;;5073204;28;20047;-69
2022/11/27 07:31:14;;;;;;;10.18;3.45;;;7.40;99.90;;;;;;5056548;28;20021;-69
2022/11/27 07:33:40;;;;;;;11.48;3.08;;;7.40;99.90;;;;;;5071770;28;20061;-70
2022/11/27 07:36:10;;;;;;;6.63;2.40;;;7.40;99.90;;;;;;5073039;28;20074;-69
2022/11/27 07:38:36;;;;;;;7.35;2.40;;;7.50;99.90;;;;;;5073436;28;20035;-69
2022/11/27 07:41:04;;;;;;;9.93;2.80;;;7.50;99.90;;;;;;5057831;28;20025;-70
2022/11/27 07:43:31;;;;;;;9.95;3.20;;;7.50;99.90;;;;;;5069344;28;20078;-69
2022/11/27 07:45:56;;;;;;;9.23;3.10;;;7.50;99.90;;;;;;5059060;28;20414;-70
2022/11/27 07:48:22;;;;;;;8.00;2.67;;;7.50;99.90;;;;;;5062536;28;20029;-70
2022/11/27 07:50:48;;;;;;;7.78;2.83;;;7.50;99.90;;;;;;5066324;28;20432;-69
2022/11/27 07:53:13;;;;;;;8.02;2.92;;;7.50;99.90;;;;;;5072546;28;20025;-68
2022/11/27 07:55:40;;;;;;;7.82;2.13;;;7.60;99.90;;;;;;5068976;28;20076;-70
2022/11/27 07:58:07;;;;;;;12.52;3.20;;;7.60;99.90;;;;;;5059127;28;20020;-69
2022/11/27 08:00:34;;;;;;;11.85;3.42;;;7.60;99.90;;;;;;5065484;28;20013;-70
2022/11/27 08:03:00;;;;;;;7.15;2.65;;;7.70;99.90;;;;;;5070806;28;20457;-70
2022/11/27 08:05:26;;;;;;;6.10;2.67;;;7.60;99.90;;;;;;5055720;28;20104;-69
2022/11/27 08:07:52;;;;;;;7.68;2.55;;;7.70;99.90;;;;;;5070800;28;20186;-70
2022/11/27 08:10:17;;;;;;;10.02;3.53;;;7.70;99.90;;;;;;5072272;28;20501;-69
2022/11/27 08:12:43;;;;;;;11.07;2.88;;;7.70;99.90;;;;;;5072080;28;20032;-70
2022/11/27 08:15:09;;;;;;;10.73;3.00;;;7.70;99.90;;;;;;5072168;28;20468;-69
2022/11/27 08:17:35;;;;;;;6.88;3.22;;;7.70;99.90;;;;;;5068557;28;20023;-69
2022/11/27 08:20:01;;;;;;;7.05;2.50;;;7.70;99.90;;;;;;5071769;28;20020;-69
2022/11/27 08:22:26;;;;;;;11.00;2.53;;;7.70;99.90;;;;;;5072199;28;20028;-69
2022/11/27 08:24:52;;;;;;;9.35;2.47;;;7.70;99.90;;;;;;5062745;28;20027;-69
2022/11/27 08:27:17;;;;;;;4.55;2.13;;;7.70;99.90;;;;;;5072328;28;20035;-69
2022/11/27 08:29:43;;;;;;;10.25;3.15;;;7.70;99.90;;;;;;5063582;28;20029;-69
2022/11/27 08:32:09;;;;;;;7.10;2.63;;;7.70;99.90;;;;;;5062218;28;20104;-69
2022/11/27 08:34:35;;;;;;;9.15;3.58;;;7.60;99.90;;;;;;5058099;28;20021;-69
2022/11/27 08:37:02;;;;;;;5.95;2.45;;;7.60;99.90;;;;;;5066100;28;20458;-72
2022/11/27 08:39:28;;;;;;;9.82;3.35;;;7.60;99.90;;;;;;5058858;28;20024;-70
2022/11/27 08:41:53;;;;;;;9.18;3.05;;;7.50;99.90;;;;;;5076045;28;20116;-71
2022/11/27 08:44:19;;;;;;;11.75;3.85;;;7.50;99.90;;;;;;5074229;28;20027;-71
2022/11/27 08:46:45;;;;;;;9.40;2.80;;;7.60;99.90;;;;;;5075024;28;20032;-71
2022/11/27 08:49:10;;;;;;;11.55;3.55;;;7.60;99.90;;;;;;5058860;28;20055;-72
2022/11/27 08:51:36;;;;;;;7.18;3.45;;;7.50;99.90;;;;;;5070949;28;20017;-72
2022/11/27 08:54:02;;;;;;;7.85;3.00;;;7.50;99.90;;;;;;5062869;28;20027;-72
2022/11/27 08:56:28;;;;;;;9.50;3.00;;;7.50;99.90;;;;;;5064685;28;20342;-71
2022/11/27 08:58:53;;;;;;;13.02;3.15;;;7.50;99.90;;;;;;5069875;28;20028;-71
2022/11/27 09:01:22;;;;;;;10.43;3.58;;;7.50;99.90;;;;;;5075111;28;20398;-71
2022/11/27 09:03:48;;;;;;;10.10;3.30;;;7.50;99.90;;;;;;5069590;28;20431;-71
2022/11/27 09:06:17;;;;;;;11.65;3.75;;;7.50;99.90;;;;;;5063523;28;20103;-71
2022/11/27 09:08:43;;;;;;;12.05;3.60;;;7.50;99.90;;;;;;5062571;28;20122;-71
2022/11/27 09:11:10;;;;;;;12.27;3.65;;;7.50;99.90;;;;;;5071231;28;20050;-71
2022/11/27 09:13:36;;;;;;;8.75;3.67;;;7.50;99.90;;;;;;5058594;28;20100;-71
2022/11/27 09:16:07;;;;;;;14.57;3.70;;;7.50;99.90;;;;;;5073051;28;20020;-72
2022/11/27 09:18:33;;;;;;;11.73;3.58;;;7.50;99.90;;;;;;5065729;28;20032;-69
2022/11/27 09:21:06;;;;;;;13.35;4.47;;;7.50;99.90;;;;;;5074751;28;20073;-70
2022/11/27 09:23:32;;;;;;;10.20;2.80;;;7.50;99.90;;;;;;5074790;28;20032;-72
2022/11/27 09:25:59;;;;;;;14.02;4.68;;;7.50;99.90;;;;;;5074594;28;20035;-72
2022/11/27 09:28:25;;;;;;;14.25;4.78;;;7.60;99.90;;;;;;5067993;28;20187;-72
2022/11/27 09:30:55;;;;;;;15.75;4.53;;;7.60;99.90;;;;;;5073833;28;20870;-72
2022/11/27 09:33:30;;;;;;;12.50;3.65;;;7.60;99.90;;;;;;5073781;28;20052;-71
2022/11/27 09:35:56;;;;;;;11.88;4.53;;;7.60;99.90;;;;;;5074905;28;20020;-72
2022/11/27 09:38:25;;;;;;;11.45;4.38;;;7.60;99.90;;;;;;5074570;28;20449;-72
2022/11/27 09:40:54;;;;;;;22.25;4.68;;;7.60;99.90;;;;;;5069660;28;20043;-72
2022/11/27 09:43:29;;;;;;;14.05;4.15;;;7.70;99.90;;;;;;5073287;28;20016;-72
2022/11/27 09:46:00;;;;;;;12.68;4.60;;;7.70;99.90;;;;;;5074084;28;20021;-72
2022/11/27 09:48:38;;;;;;;11.80;4.18;;;7.70;99.90;;;;;;5074031;28;20028;-72
2022/11/27 09:51:11;;;;;;;15.20;3.92;;;7.70;99.90;;;;;;5073861;28;20028;-71
2022/11/27 09:53:50;;;;;;;14.02;4.75;;;7.70;99.90;;;;;;5058661;28;20492;-71
2022/11/27 09:56:17;;;;;;;14.88;4.60;;;7.70;99.90;;;;;;5072233;28;20028;-71
2022/11/27 09:58:49;;;;;;;12.43;3.97;;;7.70;99.90;;;;;;5073722;28;20076;-72
2022/11/27 10:01:24;;;;;;;13.63;4.50;;;7.70;99.90;;;;;;5073497;28;20168;-72
2022/11/27 10:03:50;;;;;;;11.15;4.25;;;7.70;99.90;;;;;;5068451;28;20032;-71
2022/11/27 10:06:22;;;;;;;11.35;3.25;;;7.70;99.90;;;;;;5073545;28;20092;-71
2022/11/27 10:09:02;;;;;;;11.20;3.83;;;7.70;99.90;;;;;;5063396;28;20066;-69
2022/11/27 10:11:54;;;;;;;13.50;3.83;;;7.70;99.90;;;;;;5073397;28;20044;-70
2022/11/27 10:14:29;;;;;;;13.85;4.38;;;7.60;99.90;;;;;;5064214;28;20029;-69
2022/11/27 10:17:24;;;;;;;14.90;4.72;;;7.70;99.90;;;;;;5068623;28;20033;-70
2022/11/27 10:20:06;;;;;;;10.52;4.28;;;7.70;99.90;;;;;;5059622;28;20097;-71
2022/11/27 10:22:32;;;;;;;;;;;7.70;99.90;;;;;;5073656;28;20017;-73
2022/11/27 10:25:06;;;;;;;13.10;4.95;;;7.70;99.90;;;;;;5072847;28;19919;-70
2022/11/27 10:27:42;;;;;;;16.88;4.65;;;7.60;99.90;;;;;;5070436;28;20060;-70
2022/11/27 10:30:17;;;;;;;12.27;3.97;;;7.70;99.90;;;;;;5063779;28;20112;-69
2022/11/27 10:32:47;;;;;;;12.90;4.88;;;7.70;99.90;;;;;;5070636;28;20047;-70
2022/11/27 10:35:17;;;;;;;18.30;5.15;;;7.70;99.90;;;;;;5057672;28;20029;-70
2022/11/27 10:37:55;;;;;;;13.30;4.70;;;7.70;99.90;;;;;;5072995;28;20115;-71
2022/11/27 10:40:38;;;;;;;14.20;4.63;;;7.70;99.90;;;;;;5073531;28;20768;-70
2022/11/27 10:43:12;;;;;;;17.85;5.32;;;7.80;99.90;;;;;;5073700;28;20086;-70
2022/11/27 10:46:02;;;;;;;17.88;5.53;;;7.80;99.90;;;;;;5057234;28;20016;-70
2022/11/27 10:48:28;;;;;;;17.25;6.65;;;7.80;99.90;;;;;;5064339;28;20127;-70
2022/11/27 10:50:55;;;;;;;8.75;3.75;;;7.80;99.90;;;;;;5071862;28;20099;-70
2022/11/27 10:53:35;;;;;;;14.88;5.38;;;7.80;99.90;;;;;;5070957;28;20016;-71
2022/11/27 10:56:14;;;;;;;16.08;5.22;;;7.90;99.90;;;;;;5066012;28;20052;-71
2022/11/27 10:58:58;;;;;;;12.00;4.68;;;7.90;99.90;;;;;;5073285;28;20479;-70
2022/11/27 11:01:26;;;;;;;15.13;5.20;;;7.90;99.90;;;;;;5057933;28;20448;-71
2022/11/27 11:04:05;;;;;;;13.52;5.00;;;7.90;99.90;;;;;;5066138;28;20025;-72
2022/11/27 11:06:37;;;;;;;9.30;3.53;;;7.90;99.90;;;;;;5063274;28;20023;-70
2022/11/27 11:09:11;;;;;;;14.95;5.60;;;7.90;99.90;;;;;;5073560;28;20028;-71
2022/11/27 11:11:36;;;;;;;19.40;6.47;;;7.90;99.90;;;;;;5060836;28;20024;-70
2022/11/27 11:14:02;;;;;;;19.20;5.75;;;7.90;99.90;;;;;;5065992;28;20449;-70
2022/11/27 11:16:29;;;;;;;11.88;4.10;;;8.00;99.90;;;;;;5062774;28;20028;-71
2022/11/27 11:18:55;;;;;;;10.93;4.07;;;8.00;99.90;;;;;;5073165;28;20039;-70
2022/11/27 11:21:41;;;;;;;20.10;5.60;;;8.00;99.90;;;;;;5059691;28;20029;-70
2022/11/27 11:24:29;;;;;;;12.13;5.03;;;8.00;99.90;;;;;;5065592;28;20067;-71
2022/11/27 11:27:10;;;;;;;13.10;4.18;;;8.10;99.90;;;;;;5066818;28;20034;-71
2022/11/27 11:29:39;;;;;;;15.70;5.57;;;8.10;99.90;;;;;;5056498;28;20028;-70
2022/11/27 11:32:19;;;;;;;11.45;4.65;;;8.00;99.90;;;;;;5072736;28;20082;-71
2022/11/27 11:34:52;;;;;;;13.43;5.47;;;8.10;99.90;;;;;;5072479;28;20039;-70
2022/11/27 11:37:32;;;;;;;15.40;6.68;;;8.00;99.90;;;;;;5075938;28;20449;-71
2022/11/27 11:40:02;;;;;;;15.43;5.18;;;8.00;99.90;;;;;;5066137;28;20369;-70
2022/11/27 11:42:35;;;;;;;19.60;6.40;;;8.00;99.90;;;;;;5063187;28;20054;-70
2022/11/27 11:45:09;;;;;;;18.85;6.03;;;8.00;99.90;;;;;;5061425;28;20020;-70
2022/11/27 11:47:50;;;;;;;21.45;7.25;;;8.00;99.90;;;;;;5072117;28;20041;-71
2022/11/27 11:50:33;;;;;;;13.95;5.85;;;8.00;99.90;;;;;;5072246;28;20100;-70
2022/11/27 11:53:11;;;;;;;19.17;6.38;;;8.00;99.90;;;;;;5066299;28;20110;-70
2022/11/27 11:55:44;;;;;;;15.32;6.68;;;8.10;99.90;;;;;;5072385;28;20023;-71
2022/11/27 11:58:27;;;;;;;10.88;5.05;;;8.00;99.90;;;;;;5071540;28;20043;-71
2022/11/27 12:01:14;;;;;;;17.58;5.53;;;8.00;99.90;;;;;;5066814;28;20032;-71
2022/11/27 12:04:22;;;;;;;11.43;5.07;;;8.00;99.90;;;;;;5070659;28;20043;-70
2022/11/27 12:06:59;;;;;;;16.42;5.80;;;8.00;99.90;;;;;;5061999;28;20032;-71
2022/11/27 12:09:44;;;;;;;23.38;7.90;;;8.10;99.90;;;;;;5072606;28;20417;-71
2022/11/27 12:12:26;;;;;;;24.58;8.63;;;8.00;99.90;;;;;;5071508;28;20032;-71
2022/11/27 12:15:27;;;;;;;21.02;6.07;;;8.10;99.90;;;;;;5076163;28;20028;-70
2022/11/27 12:18:22;;;;;;;19.52;7.43;;;8.10;99.90;;;;;;5073366;28;20067;-70
2022/11/27 12:21:13;;;;;;;14.43;6.07;;;8.10;99.90;;;;;;5076343;28;20518;-70
2022/11/27 12:24:04;;;;;;;25.65;8.00;;;8.20;99.90;;;;;;5076533;28;20043;-70
2022/11/27 12:27:07;;;;;;;13.93;5.45;;;8.20;99.90;;;;;;5073346;28;20095;-70
2022/11/27 12:29:56;;;;;;;19.48;6.90;;;8.20;99.90;;;;;;5071525;28;20035;-70
2022/11/27 12:32:27;;;;;;;13.93;5.55;;;8.20;99.90;;;;;;5073205;28;20464;-71
2022/11/27 12:35:13;;;;;;;10.32;4.25;;;8.20;99.90;;;;;;5071722;28;20082;-70
2022/11/27 12:38:09;;;;;;;12.20;4.68;;;8.20;99.90;;;;;;5056654;28;20029;-70
2022/11/27 12:41:01;;;;;;;17.63;5.78;;;8.10;99.90;;;;;;5056652;28;20028;-70
2022/11/27 12:43:32;;;;;;;16.17;6.10;;;8.10;99.90;;;;;;5061316;28;20070;-68
2022/11/27 12:46:03;;;;;;;20.88;7.90;;;8.10;99.90;;;;;;5076189;28;20105;-70
2022/11/27 12:48:42;;;;;;;15.38;5.30;;;8.00;99.90;;;;;;5076004;28;20035;-70
2022/11/27 12:51:30;;;;;;;17.70;6.43;;;8.00;99.90;;;;;;5076044;28;20110;-69
2022/11/27 12:54:13;;;;;;;15.23;6.50;;;8.00;99.90;;;;;;5067768;28;20076;-70
2022/11/27 12:56:46;;;;;;;15.02;6.93;;;8.10;99.90;;;;;;5060252;28;20009;-69
2022/11/27 12:59:24;;;;;;;;;;;8.10;99.90;;;;;;5075994;28;20475;-70
2022/11/27 13:02:04;;;;;;;17.55;6.18;;;8.10;99.90;;;;;;5075802;28;19995;-69
2022/11/27 13:04:57;;;;;;;19.67;6.93;;;8.00;99.90;;;;;;5075978;28;20151;-71
2022/11/27 13:07:28;;;;;;;21.58;7.60;;;8.10;99.90;;;;;;5075510;28;20376;-70